sensor_id;sensor_type;location;lat;lon;timestamp;temperature;humidity
27896;DHT22;15241;48.374;10.876;2023-02-28T00:01:29;0.80;99.90
27896;DHT22;15241;48.374;10.876;2023-02-28T00:06:28;0.70;99.90
27896;DHT22;15241;48.374;10.876;2023-02-28T00:11:28;0.80;99.90
27896;DHT22;15241;48.374;10.876;2023-02-28T00:16:27;0.80;99.90
27896;DHT22;15241;48.374;10.876;2023-02-28T00:21:25;0.70;99.90
27896;DHT22;15241;48.374;10.876;2023-02-28T00:26:24;0.80;99.90
27896;DHT22;15241;48.374;10.876;2023-02-28T00:31:23;0.80;99.90
27896;DHT22;15241;48.374;10.876;2023-02-28T00:36:22;0.80;99.90
27896;DHT22;15241;48.374;10.876;2023-02-28T00:41:21;0.70;99.90
27896;DHT22;15241;48.374;10.876;2023-02-28T00:46:20;0.70;99.90
27896;DHT22;15241;48.374;10.876;2023-02-28T00:51:19;0.70;99.90
27896;DHT22;15241;48.374;10.876;2023-02-28T00:56:18;0.60;99.90
27896;DHT22;15241;48.374;10.876;2023-02-28T01:01:16;0.70;99.90
27896;DHT22;15241;48.374;10.876;2023-02-28T01:06:15;0.60;99.90
27896;DHT22;15241;48.374;10.876;2023-02-28T01:11:16;0.60;99.90
27896;DHT22;15241;48.374;10.876;2023-02-28T01:16:16;0.60;99.90
27896;DHT22;15241;48.374;10.876;2023-02-28T01:21:17;0.60;99.90
27896;DHT22;15241;48.374;10.876;2023-02-28T01:26:18;0.50;99.90
27896;DHT22;15241;48.374;10.876;2023-02-28T01:31:18;0.60;99.90
27896;DHT22;15241;48.374;10.876;2023-02-28T01:36:20;0.60;99.90
27896;DHT22;15241;48.374;10.876;2023-02-28T01:41:22;0.60;99.90
27896;DHT22;15241;48.374;10.876;2023-02-28T01:46:21;0.60;99.90
27896;DHT22;15241;48.374;10.876;2023-02-28T01:51:22;0.60;99.90
27896;DHT22;15241;48.374;10.876;2023-02-28T01:56:26;0.60;99.90
27896;DHT22;15241;48.374;10.876;2023-02-28T02:01:25;0.60;99.90
27896;DHT22;15241;48.374;10.876;2023-02-28T02:06:26;0.50;99.90
27896;DHT22;15241;48.374;10.876;2023-02-28T02:11:26;0.50;99.90
27896;DHT22;15241;48.374;10.876;2023-02-28T02:16:34;0.40;99.90
27896;DHT22;15241;48.374;10.876;2023-02-28T02:22:03;0.30;99.90
27896;DHT22;15241;48.374;10.876;2023-02-28T02:27:17;0.30;99.90
27896;DHT22;15241;48.374;10.876;2023-02-28T02:32:35;0.20;99.90
27896;DHT22;15241;48.374;10.876;2023-02-28T02:37:38;0.20;99.90
27896;DHT22;15241;48.374;10.876;2023-02-28T02:42:40;0.30;99.90
27896;DHT22;15241;48.374;10.876;2023-02-28T02:47:40;0.30;99.90
27896;DHT22;15241;48.374;10.876;2023-02-28T02:52:44;0.30;99.90
27896;DHT22;15241;48.374;10.876;2023-02-28T02:57:46;0.20;99.90
27896;DHT22;15241;48.374;10.876;2023-02-28T03:02:47;0.20;99.90
27896;DHT22;15241;48.374;10.876;2023-02-28T03:07:47;0.30;99.90
27896;DHT22;15241;48.374;10.876;2023-02-28T03:18:03;0.30;99.90
27896;DHT22;15241;48.374;10.876;2023-02-28T03:23:09;0.30;99.90
27896;DHT22;15241;48.374;10.876;2023-02-28T03:28:12;0.30;99.90
27896;DHT22;15241;48.374;10.876;2023-02-28T03:33:14;0.30;99.90
27896;DHT22;15241;48.374;10.876;2023-02-28T03:38:16;0.30;99.90
27896;DHT22;15241;48.374;10.876;2023-02-28T03:43:19;0.30;99.90
27896;DHT22;15241;48.374;10.876;2023-02-28T03:48:38;0.30;99.90
27896;DHT22;15241;48.374;10.876;2023-02-28T03:53:40;0.30;99.90
27896;DHT22;15241;48.374;10.876;2023-02-28T03:58:42;0.40;99.90
27896;DHT22;15241;48.374;10.876;2023-02-28T04:03:42;0.30;99.90
27896;DHT22;15241;48.374;10.876;2023-02-28T04:08:41;0.30;99.90
27896;DHT22;15241;48.374;10.876;2023-02-28T04:13:40;0.40;99.90
27896;DHT22;15241;48.374;10.876;2023-02-28T04:18:39;0.50;99.90
27896;DHT22;15241;48.374;10.876;2023-02-28T04:23:38;0.40;99.90
27896;DHT22;15241;48.374;10.876;2023-02-28T04:28:38;0.50;99.90
27896;DHT22;15241;48.374;10.876;2023-02-28T04:33:37;0.40;99.90
27896;DHT22;15241;48.374;10.876;2023-02-28T04:38:37;0.40;99.90
27896;DHT22;15241;48.374;10.876;2023-02-28T04:43:39;0.40;99.90
27896;DHT22;15241;48.374;10.876;2023-02-28T04:48:39;0.40;99.90
27896;DHT22;15241;48.374;10.876;2023-02-28T04:53:40;0.40;99.90
27896;DHT22;15241;48.374;10.876;2023-02-28T04:58:40;0.40;99.90
27896;DHT22;15241;48.374;10.876;2023-02-28T05:03:39;0.30;99.90
27896;DHT22;15241;48.374;10.876;2023-02-28T05:08:39;0.40;99.90
27896;DHT22;15241;48.374;10.876;2023-02-28T05:13:39;0.40;99.90
27896;DHT22;15241;48.374;10.876;2023-02-28T05:18:38;0.40;99.90
27896;DHT22;15241;48.374;10.876;2023-02-28T05:23:37;0.40;99.90
27896;DHT22;15241;48.374;10.876;2023-02-28T05:28:35;0.50;99.90
27896;DHT22;15241;48.374;10.876;2023-02-28T05:33:34;0.40;99.90
27896;DHT22;15241;48.374;10.876;2023-02-28T05:38:33;0.40;99.90
27896;DHT22;15241;48.374;10.876;2023-02-28T05:43:32;0.50;99.90
27896;DHT22;15241;48.374;10.876;2023-02-28T05:48:32;0.50;99.90
27896;DHT22;15241;48.374;10.876;2023-02-28T05:53:32;0.50;99.90
27896;DHT22;15241;48.374;10.876;2023-02-28T05:58:31;0.40;99.90
27896;DHT22;15241;48.374;10.876;2023-02-28T06:03:30;0.50;99.90
27896;DHT22;15241;48.374;10.876;2023-02-28T06:08:29;0.40;99.90
27896;DHT22;15241;48.374;10.876;2023-02-28T06:13:28;0.40;99.90
27896;DHT22;15241;48.374;10.876;2023-02-28T06:18:26;0.40;99.90
27896;DHT22;15241;48.374;10.876;2023-02-28T06:23:25;0.30;99.90
27896;DHT22;15241;48.374;10.876;2023-02-28T06:28:25;0.30;99.90
27896;DHT22;15241;48.374;10.876;2023-02-28T06:33:24;0.40;99.90
27896;DHT22;15241;48.374;10.876;2023-02-28T06:38:24;0.40;99.90
27896;DHT22;15241;48.374;10.876;2023-02-28T06:43:24;0.50;99.90
27896;DHT22;15241;48.374;10.876;2023-02-28T06:48:24;0.40;99.90
27896;DHT22;15241;48.374;10.876;2023-02-28T06:53:23;0.40;99.90
27896;DHT22;15241;48.374;10.876;2023-02-28T06:58:21;0.50;99.90
27896;DHT22;15241;48.374;10.876;2023-02-28T07:03:20;0.60;99.90
27896;DHT22;15241;48.374;10.876;2023-02-28T07:08:19;0.50;99.90
27896;DHT22;15241;48.374;10.876;2023-02-28T07:13:18;0.60;99.90
27896;DHT22;15241;48.374;10.876;2023-02-28T07:18:17;0.60;99.90
27896;DHT22;15241;48.374;10.876;2023-02-28T07:23:16;0.60;99.90
27896;DHT22;15241;48.374;10.876;2023-02-28T07:28:15;0.60;99.90
27896;DHT22;15241;48.374;10.876;2023-02-28T07:33:14;0.70;99.90
27896;DHT22;15241;48.374;10.876;2023-02-28T07:38:13;0.80;99.90
27896;DHT22;15241;48.374;10.876;2023-02-28T07:43:12;0.90;99.90
27896;DHT22;15241;48.374;10.876;2023-02-28T07:48:11;0.90;99.90
27896;DHT22;15241;48.374;10.876;2023-02-28T07:53:10;0.90;99.90
27896;DHT22;15241;48.374;10.876;2023-02-28T07:58:09;1.00;99.90
27896;DHT22;15241;48.374;10.876;2023-02-28T08:03:09;1.10;99.90
27896;DHT22;15241;48.374;10.876;2023-02-28T08:08:09;1.20;99.90
27896;DHT22;15241;48.374;10.876;2023-02-28T08:13:08;1.30;99.90
27896;DHT22;15241;48.374;10.876;2023-02-28T08:18:07;1.40;99.90
27896;DHT22;15241;48.374;10.876;2023-02-28T08:23:06;1.50;99.90
27896;DHT22;15241;48.374;10.876;2023-02-28T08:28:05;1.50;99.90
27896;DHT22;15241;48.374;10.876;2023-02-28T08:33:04;1.60;99.90
27896;DHT22;15241;48.374;10.876;2023-02-28T08:38:03;1.70;99.90
27896;DHT22;15241;48.374;10.876;2023-02-28T08:43:02;2.00;99.90
27896;DHT22;15241;48.374;10.876;2023-02-28T08:48:01;2.10;99.90
27896;DHT22;15241;48.374;10.876;2023-02-28T08:53:00;2.30;99.90
27896;DHT22;15241;48.374;10.876;2023-02-28T08:57:58;2.30;99.90
27896;DHT22;15241;48.374;10.876;2023-02-28T09:02:57;2.50;99.90
27896;DHT22;15241;48.374;10.876;2023-02-28T09:07:56;2.70;99.90
27896;DHT22;15241;48.374;10.876;2023-02-28T09:12:55;2.90;99.90
27896;DHT22;15241;48.374;10.876;2023-02-28T09:17:54;2.90;99.90
27896;DHT22;15241;48.374;10.876;2023-02-28T09:22:53;3.20;99.90
27896;DHT22;15241;48.374;10.876;2023-02-28T09:27:52;3.30;99.90
27896;DHT22;15241;48.374;10.876;2023-02-28T09:32:51;3.30;99.90
27896;DHT22;15241;48.374;10.876;2023-02-28T09:37:51;3.40;99.90
27896;DHT22;15241;48.374;10.876;2023-02-28T09:42:52;3.50;99.90
27896;DHT22;15241;48.374;10.876;2023-02-28T09:47:53;4.10;99.90
27896;DHT22;15241;48.374;10.876;2023-02-28T09:52:54;4.50;99.90
27896;DHT22;15241;48.374;10.876;2023-02-28T09:57:54;4.80;99.90
27896;DHT22;15241;48.374;10.876;2023-02-28T10:03:25;5.00;99.90
27896;DHT22;15241;48.374;10.876;2023-02-28T10:08:27;5.20;99.90
27896;DHT22;15241;48.374;10.876;2023-02-28T10:18:42;5.90;99.90
27896;DHT22;15241;48.374;10.876;2023-02-28T10:23:42;7.10;99.90
27896;DHT22;15241;48.374;10.876;2023-02-28T10:28:41;7.80;99.90
27896;DHT22;15241;48.374;10.876;2023-02-28T10:33:40;9.20;99.90
27896;DHT22;15241;48.374;10.876;2023-02-28T10:38:40;10.50;99.10
27896;DHT22;15241;48.374;10.876;2023-02-28T10:43:41;11.00;96.20
27896;DHT22;15241;48.374;10.876;2023-02-28T10:48:42;11.30;95.00
27896;DHT22;15241;48.374;10.876;2023-02-28T10:53:48;11.50;93.00
27896;DHT22;15241;48.374;10.876;2023-02-28T10:58:54;11.00;91.90
27896;DHT22;15241;48.374;10.876;2023-02-28T11:03:53;12.00;91.70
27896;DHT22;15241;48.374;10.876;2023-02-28T11:08:55;13.10;90.10
27896;DHT22;15241;48.374;10.876;2023-02-28T11:13:56;13.60;86.40
27896;DHT22;15241;48.374;10.876;2023-02-28T11:24:04;16.10;78.50
27896;DHT22;15241;48.374;10.876;2023-02-28T11:34:27;19.10;66.30
27896;DHT22;15241;48.374;10.876;2023-02-28T11:39:27;20.30;58.70
27896;DHT22;15241;48.374;10.876;2023-02-28T11:44:35;21.30;53.70
27896;DHT22;15241;48.374;10.876;2023-02-28T11:49:37;22.70;49.70
27896;DHT22;15241;48.374;10.876;2023-02-28T11:54:47;23.20;46.50
27896;DHT22;15241;48.374;10.876;2023-02-28T11:59:52;23.80;44.50
27896;DHT22;15241;48.374;10.876;2023-02-28T12:05:01;25.80;42.60
27896;DHT22;15241;48.374;10.876;2023-02-28T12:10:03;27.30;39.40
27896;DHT22;15241;48.374;10.876;2023-02-28T12:20:29;30.20;32.90
27896;DHT22;15241;48.374;10.876;2023-02-28T12:25:51;31.50;31.40
27896;DHT22;15241;48.374;10.876;2023-02-28T12:30:53;31.50;29.80
27896;DHT22;15241;48.374;10.876;2023-02-28T12:35:55;32.30;28.90
27896;DHT22;15241;48.374;10.876;2023-02-28T12:40:56;33.10;28.30
27896;DHT22;15241;48.374;10.876;2023-02-28T12:45:59;33.70;27.50
27896;DHT22;15241;48.374;10.876;2023-02-28T12:50:58;34.90;26.70
27896;DHT22;15241;48.374;10.876;2023-02-28T12:56:06;34.00;25.70
27896;DHT22;15241;48.374;10.876;2023-02-28T13:01:30;33.60;25.10
27896;DHT22;15241;48.374;10.876;2023-02-28T13:06:39;33.90;25.60
27896;DHT22;15241;48.374;10.876;2023-02-28T13:11:44;34.40;25.70
27896;DHT22;15241;48.374;10.876;2023-02-28T13:16:58;34.50;25.10
27896;DHT22;15241;48.374;10.876;2023-02-28T13:21:58;35.70;24.50
27896;DHT22;15241;48.374;10.876;2023-02-28T13:27:21;36.00;24.00
27896;DHT22;15241;48.374;10.876;2023-02-28T13:32:37;35.70;24.30
27896;DHT22;15241;48.374;10.876;2023-02-28T13:37:41;36.40;24.00
27896;DHT22;15241;48.374;10.876;2023-02-28T13:42:47;36.00;23.10
27896;DHT22;15241;48.374;10.876;2023-02-28T13:47:51;35.60;23.60
27896;DHT22;15241;48.374;10.876;2023-02-28T13:53:12;33.40;24.20
27896;DHT22;15241;48.374;10.876;2023-02-28T13:58:19;30.90;26.00
27896;DHT22;15241;48.374;10.876;2023-02-28T14:03:33;27.80;27.80
27896;DHT22;15241;48.374;10.876;2023-02-28T14:08:34;25.70;29.40
27896;DHT22;15241;48.374;10.876;2023-02-28T14:13:42;23.90;31.40
27896;DHT22;15241;48.374;10.876;2023-02-28T14:18:47;24.10;30.90
27896;DHT22;15241;48.374;10.876;2023-02-28T14:24:19;25.10;30.10
27896;DHT22;15241;48.374;10.876;2023-02-28T14:29:30;27.40;28.30
27896;DHT22;15241;48.374;10.876;2023-02-28T14:34:39;29.80;27.40
27896;DHT22;15241;48.374;10.876;2023-02-28T14:39:41;30.80;25.60
27896;DHT22;15241;48.374;10.876;2023-02-28T14:44:40;32.30;25.50
27896;DHT22;15241;48.374;10.876;2023-02-28T14:49:43;32.70;25.10
27896;DHT22;15241;48.374;10.876;2023-02-28T14:54:44;33.70;24.60
27896;DHT22;15241;48.374;10.876;2023-02-28T14:59:43;32.40;24.20
27896;DHT22;15241;48.374;10.876;2023-02-28T15:04:41;32.00;24.80
27896;DHT22;15241;48.374;10.876;2023-02-28T15:09:40;31.10;25.10
27896;DHT22;15241;48.374;10.876;2023-02-28T15:14:42;30.30;25.30
27896;DHT22;15241;48.374;10.876;2023-02-28T15:19:50;29.70;26.10
27896;DHT22;15241;48.374;10.876;2023-02-28T15:24:45;28.10;26.70
27896;DHT22;15241;48.374;10.876;2023-02-28T15:29:47;28.00;27.00
27896;DHT22;15241;48.374;10.876;2023-02-28T15:34:47;27.10;27.40
27896;DHT22;15241;48.374;10.876;2023-02-28T15:39:46;27.10;28.00
27896;DHT22;15241;48.374;10.876;2023-02-28T15:44:46;25.80;28.30
27896;DHT22;15241;48.374;10.876;2023-02-28T15:49:48;25.00;29.10
27896;DHT22;15241;48.374;10.876;2023-02-28T15:59:57;23.10;30.90
27896;DHT22;15241;48.374;10.876;2023-02-28T16:05:01;21.50;32.70
27896;DHT22;15241;48.374;10.876;2023-02-28T16:10:01;19.70;35.30
27896;DHT22;15241;48.374;10.876;2023-02-28T16:15:03;17.80;38.90
27896;DHT22;15241;48.374;10.876;2023-02-28T16:20:13;15.90;42.10
27896;DHT22;15241;48.374;10.876;2023-02-28T16:25:14;14.40;44.80
27896;DHT22;15241;48.374;10.876;2023-02-28T16:30:19;13.20;47.20
27896;DHT22;15241;48.374;10.876;2023-02-28T16:35:19;11.90;49.80
27896;DHT22;15241;48.374;10.876;2023-02-28T16:40:21;11.00;51.70
27896;DHT22;15241;48.374;10.876;2023-02-28T16:45:23;10.40;53.10
27896;DHT22;15241;48.374;10.876;2023-02-28T16:50:24;9.70;55.60
27896;DHT22;15241;48.374;10.876;2023-02-28T16:55:25;9.10;57.50
27896;DHT22;15241;48.374;10.876;2023-02-28T17:00:26;8.50;58.90
27896;DHT22;15241;48.374;10.876;2023-02-28T17:05:25;8.20;59.80
27896;DHT22;15241;48.374;10.876;2023-02-28T17:10:25;7.80;61.70
27896;DHT22;15241;48.374;10.876;2023-02-28T17:15:24;7.40;62.70
27896;DHT22;15241;48.374;10.876;2023-02-28T17:20:23;7.00;64.20
27896;DHT22;15241;48.374;10.876;2023-02-28T17:25:23;6.70;65.40
27896;DHT22;15241;48.374;10.876;2023-02-28T17:30:23;6.50;67.10
27896;DHT22;15241;48.374;10.876;2023-02-28T17:35:23;6.30;68.80
27896;DHT22;15241;48.374;10.876;2023-02-28T17:40:23;6.00;69.60
27896;DHT22;15241;48.374;10.876;2023-02-28T17:45:22;5.90;71.20
27896;DHT22;15241;48.374;10.876;2023-02-28T17:50:22;5.60;72.00
27896;DHT22;15241;48.374;10.876;2023-02-28T17:55:21;5.50;72.90
27896;DHT22;15241;48.374;10.876;2023-02-28T18:00:21;5.30;74.10
27896;DHT22;15241;48.374;10.876;2023-02-28T18:05:20;5.20;75.30
27896;DHT22;15241;48.374;10.876;2023-02-28T18:10:20;5.10;76.80
27896;DHT22;15241;48.374;10.876;2023-02-28T18:15:21;5.00;77.30
27896;DHT22;15241;48.374;10.876;2023-02-28T18:20:20;4.80;79.10
27896;DHT22;15241;48.374;10.876;2023-02-28T18:25:19;4.70;79.90
27896;DHT22;15241;48.374;10.876;2023-02-28T18:30:19;4.60;81.80
27896;DHT22;15241;48.374;10.876;2023-02-28T18:35:18;4.50;82.60
27896;DHT22;15241;48.374;10.876;2023-02-28T18:40:18;4.40;83.60
27896;DHT22;15241;48.374;10.876;2023-02-28T18:45:17;4.30;84.40
27896;DHT22;15241;48.374;10.876;2023-02-28T18:50:17;4.20;86.60
27896;DHT22;15241;48.374;10.876;2023-02-28T18:55:16;4.10;88.30
27896;DHT22;15241;48.374;10.876;2023-02-28T19:00:17;4.00;88.70
27896;DHT22;15241;48.374;10.876;2023-02-28T19:05:16;4.00;89.60
27896;DHT22;15241;48.374;10.876;2023-02-28T19:10:15;4.00;90.30
27896;DHT22;15241;48.374;10.876;2023-02-28T19:15:14;4.00;90.80
27896;DHT22;15241;48.374;10.876;2023-02-28T19:20:14;4.00;91.10
27896;DHT22;15241;48.374;10.876;2023-02-28T19:25:13;3.90;91.30
27896;DHT22;15241;48.374;10.876;2023-02-28T19:30:13;3.90;91.90
27896;DHT22;15241;48.374;10.876;2023-02-28T19:35:12;3.80;92.00
27896;DHT22;15241;48.374;10.876;2023-02-28T19:40:12;3.80;92.40
27896;DHT22;15241;48.374;10.876;2023-02-28T19:45:12;3.80;92.60
27896;DHT22;15241;48.374;10.876;2023-02-28T19:50:12;3.70;93.20
27896;DHT22;15241;48.374;10.876;2023-02-28T19:55:11;3.70;93.70
27896;DHT22;15241;48.374;10.876;2023-02-28T20:00:13;3.60;94.00
27896;DHT22;15241;48.374;10.876;2023-02-28T20:05:12;3.70;94.50
27896;DHT22;15241;48.374;10.876;2023-02-28T20:10:12;3.60;94.70
27896;DHT22;15241;48.374;10.876;2023-02-28T20:15:11;3.50;94.90
27896;DHT22;15241;48.374;10.876;2023-02-28T20:20:11;3.50;95.30
27896;DHT22;15241;48.374;10.876;2023-02-28T20:25:10;3.50;95.90
27896;DHT22;15241;48.374;10.876;2023-02-28T20:30:11;3.40;96.00
27896;DHT22;15241;48.374;10.876;2023-02-28T20:35:11;3.40;96.60
27896;DHT22;15241;48.374;10.876;2023-02-28T20:40:13;3.40;97.60
27896;DHT22;15241;48.374;10.876;2023-02-28T20:45:12;3.40;98.10
27896;DHT22;15241;48.374;10.876;2023-02-28T20:50:12;3.40;98.00
27896;DHT22;15241;48.374;10.876;2023-02-28T20:55:11;3.50;99.00
27896;DHT22;15241;48.374;10.876;2023-02-28T21:00:13;3.50;99.40
27896;DHT22;15241;48.374;10.876;2023-02-28T21:05:12;3.60;99.40
27896;DHT22;15241;48.374;10.876;2023-02-28T21:10:12;3.50;99.20
27896;DHT22;15241;48.374;10.876;2023-02-28T21:15:12;3.50;99.60
27896;DHT22;15241;48.374;10.876;2023-02-28T21:20:12;3.60;99.90
27896;DHT22;15241;48.374;10.876;2023-02-28T21:25:11;3.50;99.90
27896;DHT22;15241;48.374;10.876;2023-02-28T21:30:11;3.50;99.90
27896;DHT22;15241;48.374;10.876;2023-02-28T21:35:11;3.50;99.90
27896;DHT22;15241;48.374;10.876;2023-02-28T21:40:12;3.40;99.90
27896;DHT22;15241;48.374;10.876;2023-02-28T21:45:12;3.50;99.90
27896;DHT22;15241;48.374;10.876;2023-02-28T21:50:12;3.50;99.90
27896;DHT22;15241;48.374;10.876;2023-02-28T21:55:11;3.50;99.90
27896;DHT22;15241;48.374;10.876;2023-02-28T22:00:12;3.50;99.90
27896;DHT22;15241;48.374;10.876;2023-02-28T22:05:11;3.50;99.90
27896;DHT22;15241;48.374;10.876;2023-02-28T22:10:14;3.50;99.90
27896;DHT22;15241;48.374;10.876;2023-02-28T22:20:21;3.60;99.90
27896;DHT22;15241;48.374;10.876;2023-02-28T22:25:20;3.60;99.90
27896;DHT22;15241;48.374;10.876;2023-02-28T22:30:19;3.70;99.90
27896;DHT22;15241;48.374;10.876;2023-02-28T22:35:18;3.60;99.90
27896;DHT22;15241;48.374;10.876;2023-02-28T22:40:17;3.60;99.90
27896;DHT22;15241;48.374;10.876;2023-02-28T22:45:16;3.70;99.90
27896;DHT22;15241;48.374;10.876;2023-02-28T22:50:15;3.70;99.90
27896;DHT22;15241;48.374;10.876;2023-02-28T22:55:15;3.70;99.90
27896;DHT22;15241;48.374;10.876;2023-02-28T23:00:15;3.70;99.90
27896;DHT22;15241;48.374;10.876;2023-02-28T23:05:14;3.70;99.90
27896;DHT22;15241;48.374;10.876;2023-02-28T23:10:16;3.70;99.90
27896;DHT22;15241;48.374;10.876;2023-02-28T23:15:15;3.70;99.90
27896;DHT22;15241;48.374;10.876;2023-02-28T23:20:17;3.70;99.90
27896;DHT22;15241;48.374;10.876;2023-02-28T23:25:17;3.70;99.90
27896;DHT22;15241;48.374;10.876;2023-02-28T23:30:17;3.70;99.90
27896;DHT22;15241;48.374;10.876;2023-02-28T23:35:16;3.70;99.90
27896;DHT22;15241;48.374;10.876;2023-02-28T23:40:16;3.70;99.90
27896;DHT22;15241;48.374;10.876;2023-02-28T23:45:15;3.70;99.90
27896;DHT22;15241;48.374;10.876;2023-02-28T23:50:14;3.60;99.90
27896;DHT22;15241;48.374;10.876;2023-02-28T23:55:13;3.70;99.90
